Baquedano, Chile
Current Conditions -  °F | °C
As of 2:00 AM on Sunday 26 Oct 2014 (Local Time) from SCFA Reporting Station
Overcast Overcast  
Wind Chill: 63°   Ceiling: 2000
Heat Index: 63°   Visibility: 6mi
Dew Point: 54°   Wind: 13mph
Humidity: 72%   Direction: 10°N
Pressure: 30.03"   Gusts: NA
Location:  23.33°S, 69.85°W
Report Text: SCFA 260600Z 01011KT 9999 OVC020 17/12 Q1017 NOSIG
Loading
Personal Weather Stations






























Interactive Weather Map
Tropical Storm Tracking
New forecast layout! Learn more

10-Day Weather Forecast

Advertisements
Track Severe Weather on mobile